createdAt,value
2023-05-06T00:00:19.953Z,15.14
2023-05-06T00:02:47.129Z,15.17
2023-05-06T00:05:14.242Z,15.14
2023-05-06T00:07:41.136Z,15.02
2023-05-06T00:10:21.325Z,14.81
2023-05-06T00:12:47.846Z,14.93
2023-05-06T00:15:14.323Z,15.00
2023-05-06T00:17:40.881Z,15.18
2023-05-06T00:20:09.555Z,15.33
2023-05-06T00:22:36.176Z,15.22
2023-05-06T00:25:04.844Z,15.26
2023-05-06T00:27:31.298Z,15.09
2023-05-06T00:29:58.345Z,15.29
2023-05-06T00:32:24.850Z,15.20
2023-05-06T00:34:51.440Z,15.13
2023-05-06T00:37:17.877Z,15.07
2023-05-06T00:39:45.433Z,14.88
2023-05-06T00:42:11.893Z,14.81
2023-05-06T00:44:38.366Z,14.82
2023-05-06T00:47:05.019Z,14.97
2023-05-06T00:49:32.001Z,15.04
2023-05-06T00:51:59.640Z,15.06
2023-05-06T00:54:26.911Z,14.98
2023-05-06T00:56:54.348Z,14.93
2023-05-06T00:59:22.605Z,14.91
2023-05-06T01:01:55.086Z,14.96
2023-05-06T01:04:23.930Z,14.89
2023-05-06T01:07:06.270Z,14.80
2023-05-06T01:09:38.703Z,14.70
2023-05-06T01:12:17.144Z,14.41
2023-05-06T01:15:08.828Z,14.26
2023-05-06T01:17:43.547Z,14.34
2023-05-06T01:20:12.000Z,14.64
2023-05-06T01:22:42.132Z,14.43
2023-05-06T01:25:21.297Z,14.49
2023-05-06T01:27:53.777Z,14.18
2023-05-06T01:30:30.317Z,14.35
2023-05-06T01:33:08.919Z,14.24
2023-05-06T01:35:58.982Z,14.48
2023-05-06T01:38:37.958Z,14.40
2023-05-06T01:41:05.906Z,14.30
2023-05-06T01:43:37.718Z,14.43
2023-05-06T01:46:06.189Z,14.41
2023-05-06T01:48:36.297Z,14.46
2023-05-06T01:51:03.110Z,14.40
2023-05-06T01:53:29.591Z,14.50
2023-05-06T01:55:56.062Z,14.51
2023-05-06T01:58:22.517Z,14.56
2023-05-06T02:00:48.968Z,14.41
2023-05-06T02:03:15.585Z,14.49
2023-05-06T02:05:42.148Z,14.52
2023-05-06T02:08:08.637Z,14.53
2023-05-06T02:10:35.080Z,14.58
2023-05-06T02:13:01.675Z,14.52
2023-05-06T02:15:28.242Z,14.49
2023-05-06T02:18:01.603Z,14.51
2023-05-06T02:20:28.116Z,14.68
2023-05-06T02:23:00.529Z,14.67
2023-05-06T02:25:27.580Z,14.64
2023-05-06T02:27:55.089Z,14.76
2023-05-06T02:30:21.561Z,14.63
2023-05-06T02:32:48.152Z,14.77
2023-05-06T02:35:14.628Z,14.67
2023-05-06T02:37:41.106Z,14.47
2023-05-06T02:40:08.975Z,14.61
2023-05-06T02:42:35.940Z,14.65
2023-05-06T02:45:02.645Z,14.65
2023-05-06T02:47:29.478Z,14.56
2023-05-06T02:50:05.976Z,14.66
2023-05-06T02:52:33.400Z,14.56
2023-05-06T02:55:00.463Z,14.46
2023-05-06T02:57:27.041Z,14.54
2023-05-06T02:59:54.621Z,14.64
2023-05-06T03:02:21.190Z,14.52
2023-05-06T03:04:48.789Z,14.65
2023-05-06T03:07:15.278Z,14.60
2023-05-06T03:09:41.774Z,14.60
2023-05-06T03:12:08.278Z,14.70
2023-05-06T03:14:35.742Z,14.47
2023-05-06T03:17:02.188Z,14.48
2023-05-06T03:19:28.650Z,14.35
2023-05-06T03:21:55.151Z,14.48
2023-05-06T03:24:21.763Z,14.55
2023-05-06T03:26:48.279Z,14.54
2023-05-06T03:29:14.742Z,14.60
2023-05-06T03:31:41.920Z,14.54
2023-05-06T03:34:10.837Z,14.54
2023-05-06T03:36:37.269Z,14.47
2023-05-06T03:39:03.779Z,14.47
2023-05-06T03:41:34.426Z,14.44
2023-05-06T03:44:01.190Z,14.45
2023-05-06T03:46:34.774Z,14.43
2023-05-06T03:49:02.803Z,14.34
2023-05-06T03:51:29.607Z,14.49
2023-05-06T03:53:56.538Z,14.40
2023-05-06T03:56:24.162Z,14.36
2023-05-06T03:58:50.698Z,14.41
2023-05-06T04:01:18.475Z,14.36
2023-05-06T04:03:45.067Z,14.34
2023-05-06T04:06:11.660Z,14.39
2023-05-06T04:08:38.106Z,14.28
2023-05-06T04:11:06.156Z,14.41
2023-05-06T04:13:39.648Z,14.40
2023-05-06T04:16:06.474Z,14.35
2023-05-06T04:18:34.291Z,14.50
2023-05-06T04:21:00.994Z,14.47
2023-05-06T04:23:27.666Z,14.53
2023-05-06T04:25:54.186Z,14.46
2023-05-06T04:28:20.784Z,14.55
2023-05-06T04:30:48.263Z,14.39
2023-05-06T04:33:16.840Z,14.55
2023-05-06T04:35:53.444Z,14.38
2023-05-06T04:38:21.824Z,14.30
2023-05-06T04:40:53.637Z,14.30
2023-05-06T04:43:20.716Z,14.30
2023-05-06T04:45:54.331Z,14.42
2023-05-06T04:48:22.380Z,14.51
2023-05-06T04:50:55.982Z,14.50
2023-05-06T04:53:22.493Z,14.49
2023-05-06T04:55:48.962Z,14.55
2023-05-06T04:58:15.658Z,14.37
2023-05-06T05:00:42.460Z,14.50
2023-05-06T05:03:09.036Z,14.50
2023-05-06T05:05:35.637Z,14.52
2023-05-06T05:08:02.162Z,14.48
2023-05-06T05:10:36.672Z,14.64
2023-05-06T05:13:03.189Z,14.73
2023-05-06T05:15:29.695Z,14.68
2023-05-06T05:17:58.746Z,14.68
2023-05-06T05:20:25.377Z,14.53
2023-05-06T05:22:52.881Z,14.77
2023-05-06T05:25:19.336Z,14.59
2023-05-06T05:27:49.959Z,14.61
2023-05-06T05:30:16.610Z,14.72
2023-05-06T05:32:50.758Z,14.81
2023-05-06T05:35:19.333Z,14.81
2023-05-06T05:37:45.817Z,14.86
2023-05-06T05:40:13.085Z,14.55
2023-05-06T05:42:40.676Z,14.56
2023-05-06T05:45:08.711Z,14.76
2023-05-06T05:47:35.580Z,14.80
2023-05-06T05:50:02.154Z,14.88
2023-05-06T05:52:28.688Z,14.87
2023-05-06T05:54:55.236Z,14.92
2023-05-06T05:57:28.898Z,15.04
2023-05-06T05:59:56.412Z,15.07
2023-05-06T06:02:23.185Z,15.17
2023-05-06T06:04:57.731Z,15.15
2023-05-06T06:07:24.849Z,15.19
2023-05-06T06:09:51.658Z,15.03
2023-05-06T06:12:20.164Z,14.84
2023-05-06T06:14:48.142Z,15.03
2023-05-06T06:17:15.303Z,15.16
2023-05-06T06:19:47.111Z,15.22
2023-05-06T06:22:13.678Z,15.11
2023-05-06T06:24:40.239Z,15.08
2023-05-06T06:27:25.210Z,15.20
2023-05-06T06:29:53.676Z,15.46
2023-05-06T06:32:22.262Z,15.64
2023-05-06T06:34:50.741Z,15.66
2023-05-06T06:37:17.209Z,15.32
2023-05-06T06:39:43.782Z,15.47
2023-05-06T06:42:16.340Z,15.50
2023-05-06T06:44:42.834Z,15.77
2023-05-06T06:47:09.319Z,15.87
2023-05-06T06:49:40.333Z,16.31
2023-05-06T06:52:06.793Z,17.31
2023-05-06T06:54:33.267Z,17.47
2023-05-06T06:57:00.154Z,17.77
2023-05-06T06:59:26.740Z,17.78
2023-05-06T07:01:53.226Z,18.77
2023-05-06T07:04:19.822Z,19.45
2023-05-06T07:06:46.444Z,20.28
2023-05-06T07:09:13.339Z,20.75
2023-05-06T07:11:41.837Z,20.66
2023-05-06T07:14:08.776Z,20.19
2023-05-06T07:16:41.865Z,20.31
2023-05-06T07:19:20.441Z,20.08
2023-05-06T07:21:48.930Z,20.81
2023-05-06T07:24:15.466Z,20.42
2023-05-06T07:26:42.114Z,21.02
2023-05-06T07:29:08.765Z,21.26
2023-05-06T07:31:42.191Z,21.14
2023-05-06T07:34:08.713Z,20.96
2023-05-06T07:36:40.509Z,21.74
2023-05-06T07:39:07.708Z,21.87
2023-05-06T07:41:34.509Z,21.49
2023-05-06T07:44:01.409Z,20.79
2023-05-06T07:46:28.201Z,21.36
2023-05-06T07:48:54.962Z,21.02
2023-05-06T07:51:21.797Z,19.39
2023-05-06T07:53:50.453Z,20.10
2023-05-06T07:56:23.078Z,19.82
2023-05-06T07:58:51.564Z,21.17
2023-05-06T08:01:18.217Z,21.56
2023-05-06T08:03:44.839Z,21.84
2023-05-06T08:06:11.496Z,21.27
2023-05-06T08:08:37.979Z,21.09
2023-05-06T08:11:04.768Z,20.16
2023-05-06T08:13:33.439Z,21.39
2023-05-06T08:16:02.272Z,21.71
2023-05-06T08:18:28.900Z,22.21
2023-05-06T08:20:55.702Z,22.63
2023-05-06T08:23:26.204Z,20.83
2023-05-06T08:25:52.699Z,21.06
2023-05-06T08:28:19.740Z,21.74
2023-05-06T08:30:48.391Z,21.20
2023-05-06T08:33:14.938Z,22.02
2023-05-06T08:35:42.518Z,21.21
2023-05-06T08:38:09.120Z,21.19
2023-05-06T08:40:43.114Z,21.94
2023-05-06T08:43:19.982Z,20.94
2023-05-06T08:45:52.334Z,20.95
2023-05-06T08:48:18.933Z,20.42
2023-05-06T08:50:47.549Z,20.53
2023-05-06T08:53:14.201Z,20.34
2023-05-06T08:55:42.570Z,20.46
2023-05-06T08:58:14.080Z,20.56
2023-05-06T09:00:40.719Z,20.17
2023-05-06T09:03:07.392Z,20.08
2023-05-06T09:05:33.977Z,19.80
2023-05-06T09:08:00.458Z,20.18
2023-05-06T09:10:33.093Z,19.86
2023-05-06T09:12:59.771Z,20.24
2023-05-06T09:15:27.086Z,21.02
2023-05-06T09:17:55.315Z,20.52
2023-05-06T09:20:21.959Z,21.41
2023-05-06T09:22:49.059Z,22.08
2023-05-06T09:25:15.628Z,21.92
2023-05-06T09:27:42.085Z,21.45
2023-05-06T09:30:12.446Z,21.94
2023-05-06T09:32:40.507Z,21.70
2023-05-06T09:35:08.626Z,21.74
2023-05-06T09:37:35.415Z,21.27
2023-05-06T09:40:01.988Z,20.97
2023-05-06T09:42:30.146Z,20.73
2023-05-06T09:45:01.547Z,20.93
2023-05-06T09:47:33.746Z,20.66
2023-05-06T09:50:01.592Z,20.27
2023-05-06T09:52:29.039Z,20.84
2023-05-06T09:54:55.817Z,20.87
2023-05-06T09:57:22.965Z,21.07
2023-05-06T09:59:52.263Z,20.66
2023-05-06T10:02:20.093Z,21.18
2023-05-06T10:04:49.086Z,21.09
2023-05-06T10:07:19.722Z,20.62
2023-05-06T10:09:48.840Z,20.50
2023-05-06T10:12:16.720Z,20.51
2023-05-06T10:14:54.616Z,20.34
2023-05-06T10:17:25.868Z,21.05
2023-05-06T10:19:57.119Z,21.07
2023-05-06T10:22:49.384Z,20.79
2023-05-06T10:25:38.095Z,21.07
2023-05-06T10:28:07.594Z,21.09
2023-05-06T10:30:44.947Z,20.63
2023-05-06T10:33:15.172Z,21.13
2023-05-06T10:35:41.810Z,21.58
2023-05-06T10:38:14.943Z,21.18
2023-05-06T10:40:42.403Z,21.14
2023-05-06T10:43:25.466Z,21.05
2023-05-06T10:46:12.309Z,21.24
2023-05-06T10:48:59.805Z,22.06
2023-05-06T10:51:28.251Z,21.84
2023-05-06T10:54:09.668Z,21.79
2023-05-06T10:56:38.236Z,21.89
2023-05-06T10:59:10.091Z,22.24
2023-05-06T11:01:38.554Z,22.27
2023-05-06T11:04:11.051Z,22.48
2023-05-06T11:06:41.733Z,22.03
2023-05-06T11:09:27.466Z,21.83
2023-05-06T11:12:02.636Z,21.88
2023-05-06T11:14:35.571Z,21.80
2023-05-06T11:17:08.643Z,21.77
2023-05-06T11:19:37.699Z,22.19
2023-05-06T11:22:06.060Z,22.29
2023-05-06T11:24:40.248Z,22.40
2023-05-06T11:27:07.484Z,22.47
2023-05-06T11:29:33.999Z,22.62
2023-05-06T11:32:05.656Z,22.80
2023-05-06T11:34:32.929Z,22.42
2023-05-06T11:37:02.291Z,22.11
2023-05-06T11:39:33.216Z,22.28
2023-05-06T11:42:09.498Z,22.66
2023-05-06T11:44:38.782Z,22.84
2023-05-06T11:47:07.540Z,22.71
2023-05-06T11:49:42.757Z,22.61
2023-05-06T11:52:10.757Z,22.58
2023-05-06T11:54:48.442Z,22.40
2023-05-06T11:57:16.231Z,22.49
2023-05-06T11:59:43.748Z,22.31
2023-05-06T12:02:14.151Z,22.58
2023-05-06T12:04:42.941Z,22.43
2023-05-06T12:07:11.834Z,22.38
2023-05-06T12:09:49.191Z,22.26
2023-05-06T12:12:19.435Z,22.15
2023-05-06T12:14:49.243Z,22.33
2023-05-06T12:17:16.573Z,22.33
2023-05-06T12:19:43.055Z,22.57
2023-05-06T12:22:16.465Z,22.29
2023-05-06T12:24:43.038Z,22.25
2023-05-06T12:27:09.638Z,22.43
2023-05-06T12:29:36.246Z,22.45
2023-05-06T12:32:13.879Z,22.43
2023-05-06T12:34:41.623Z,22.17
2023-05-06T12:37:11.372Z,21.85
2023-05-06T12:39:39.381Z,22.26
2023-05-06T12:42:06.491Z,22.34
2023-05-06T12:44:33.581Z,22.46
2023-05-06T12:47:07.417Z,23.12
2023-05-06T12:49:59.416Z,23.24
2023-05-06T12:52:28.786Z,23.68
2023-05-06T12:54:55.769Z,22.99
2023-05-06T12:57:22.947Z,23.23
2023-05-06T12:59:49.951Z,23.59
2023-05-06T13:02:16.528Z,23.02
2023-05-06T13:04:44.283Z,23.38
2023-05-06T13:07:10.884Z,23.26
2023-05-06T13:09:37.365Z,23.59
2023-05-06T13:12:05.099Z,23.68
2023-05-06T13:14:33.617Z,23.51
2023-05-06T13:17:01.305Z,23.32
2023-05-06T13:19:32.900Z,23.30
2023-05-06T13:22:07.167Z,23.51
2023-05-06T13:24:33.665Z,23.88
2023-05-06T13:27:01.436Z,24.07
2023-05-06T13:29:29.538Z,23.99
2023-05-06T13:31:56.566Z,23.93
2023-05-06T13:34:23.108Z,23.92
2023-05-06T13:36:52.160Z,24.02
2023-05-06T13:39:18.644Z,23.88
2023-05-06T13:41:50.053Z,23.71
2023-05-06T13:44:17.276Z,23.73
2023-05-06T13:46:45.655Z,23.97
2023-05-06T13:49:14.609Z,24.19
2023-05-06T13:51:42.169Z,24.28
2023-05-06T13:54:08.652Z,24.34
2023-05-06T13:56:35.366Z,23.94
2023-05-06T13:59:01.866Z,23.66
2023-05-06T14:01:28.353Z,23.52
2023-05-06T14:03:54.868Z,23.21
2023-05-06T14:06:21.294Z,23.13
2023-05-06T14:08:47.993Z,23.27
2023-05-06T14:11:14.459Z,23.08
2023-05-06T14:13:41.902Z,23.19
2023-05-06T14:16:08.550Z,23.27
2023-05-06T14:18:35.227Z,22.63
2023-05-06T14:21:01.799Z,22.92
2023-05-06T14:23:28.248Z,23.14
2023-05-06T14:25:54.755Z,23.26
2023-05-06T14:28:21.218Z,23.00
2023-05-06T14:30:50.828Z,23.47
2023-05-06T14:33:17.289Z,23.62
2023-05-06T14:35:46.032Z,23.25
2023-05-06T14:38:12.539Z,23.32
2023-05-06T14:40:40.318Z,23.32
2023-05-06T14:43:07.604Z,23.22
2023-05-06T14:45:42.581Z,23.58
2023-05-06T14:48:14.163Z,23.57
2023-05-06T14:50:41.192Z,23.31
2023-05-06T14:53:07.667Z,22.82
2023-05-06T14:55:34.103Z,22.68
2023-05-06T14:58:03.758Z,22.66
2023-05-06T15:00:31.089Z,22.52
2023-05-06T15:02:57.584Z,22.29
2023-05-06T15:05:26.235Z,22.58
2023-05-06T15:07:52.691Z,22.70
2023-05-06T15:10:27.048Z,22.76
2023-05-06T15:12:53.532Z,22.91
2023-05-06T15:15:20.324Z,23.16
2023-05-06T15:17:47.004Z,23.01
2023-05-06T15:20:13.638Z,23.31
2023-05-06T15:22:40.325Z,23.26
2023-05-06T15:25:09.411Z,23.28
2023-05-06T15:27:40.901Z,22.92
2023-05-06T15:30:10.851Z,23.01
2023-05-06T15:32:37.398Z,22.93
2023-05-06T15:35:04.888Z,23.16
2023-05-06T15:37:34.367Z,23.26
2023-05-06T15:40:01.050Z,23.22
2023-05-06T15:42:27.652Z,23.40
2023-05-06T15:44:55.021Z,22.92
2023-05-06T15:47:27.487Z,23.29
2023-05-06T15:49:54.972Z,23.14
2023-05-06T15:52:22.557Z,23.13
2023-05-06T15:54:50.083Z,22.95
2023-05-06T15:57:17.167Z,22.86
2023-05-06T15:59:43.597Z,22.54
2023-05-06T16:04:41.116Z,22.92
2023-05-06T16:07:07.692Z,23.10
2023-05-06T16:09:35.168Z,23.15
2023-05-06T16:12:01.647Z,22.95
2023-05-06T16:14:28.095Z,22.93
2023-05-06T16:16:54.618Z,22.59
2023-05-06T16:19:21.149Z,22.72
2023-05-06T16:21:48.355Z,22.86
2023-05-06T16:24:14.969Z,22.79
2023-05-06T16:26:41.549Z,22.91
2023-05-06T16:29:08.041Z,22.94
2023-05-06T16:31:34.681Z,22.91
2023-05-06T16:34:01.234Z,22.87
2023-05-06T16:36:28.895Z,22.89
2023-05-06T16:38:55.527Z,22.73
2023-05-06T16:41:22.559Z,22.86
2023-05-06T16:43:49.033Z,22.83
2023-05-06T16:46:15.624Z,22.77
2023-05-06T16:48:42.255Z,22.73
2023-05-06T16:51:10.332Z,22.74
2023-05-06T16:53:36.811Z,22.69
2023-05-06T16:56:03.713Z,22.68
2023-05-06T16:58:31.369Z,22.44
2023-05-06T17:00:57.831Z,22.14
2023-05-06T17:03:27.593Z,22.01
2023-05-06T17:05:54.515Z,21.95
2023-05-06T17:08:27.248Z,22.08
2023-05-06T17:10:53.823Z,22.16
2023-05-06T17:13:23.513Z,22.21
2023-05-06T17:15:51.332Z,22.26
2023-05-06T17:18:18.519Z,21.96
2023-05-06T17:20:54.910Z,21.99
2023-05-06T17:23:22.057Z,21.94
2023-05-06T17:25:48.570Z,21.89
2023-05-06T17:28:18.002Z,21.78
2023-05-06T17:30:47.176Z,21.83
2023-05-06T17:33:14.711Z,21.83
2023-05-06T17:35:41.156Z,21.65
2023-05-06T17:38:07.894Z,21.77
2023-05-06T17:40:34.522Z,21.58
2023-05-06T17:43:11.246Z,21.46
2023-05-06T17:45:37.687Z,21.28
2023-05-06T17:48:04.410Z,21.15
2023-05-06T17:50:31.907Z,21.00
2023-05-06T17:52:58.343Z,20.91
2023-05-06T17:55:25.094Z,20.71
2023-05-06T17:57:52.777Z,20.55
2023-05-06T18:00:19.525Z,20.36
2023-05-06T18:02:46.278Z,20.19
2023-05-06T18:05:13.744Z,20.04
2023-05-06T18:07:40.953Z,19.92
2023-05-06T18:10:08.018Z,19.78
2023-05-06T18:12:34.555Z,19.63
2023-05-06T18:15:01.299Z,19.54
2023-05-06T18:17:27.818Z,19.35
2023-05-06T18:19:54.388Z,19.16
2023-05-06T18:22:20.859Z,19.07
2023-05-06T18:24:47.418Z,18.94
2023-05-06T18:27:13.874Z,18.93
2023-05-06T18:29:41.415Z,18.78
2023-05-06T18:32:09.054Z,18.72
2023-05-06T18:34:35.675Z,18.46
2023-05-06T18:37:03.779Z,18.52
2023-05-06T18:39:30.716Z,18.38
2023-05-06T18:41:57.240Z,18.36
2023-05-06T18:44:23.710Z,18.39
2023-05-06T18:46:50.227Z,18.34
2023-05-06T18:49:16.678Z,18.21
2023-05-06T18:51:45.247Z,18.17
2023-05-06T18:54:13.431Z,18.08
2023-05-06T18:56:42.633Z,17.94
2023-05-06T18:59:09.164Z,18.04
2023-05-06T19:01:36.661Z,17.99
2023-05-06T19:04:03.750Z,17.85
2023-05-06T19:06:31.533Z,17.98
2023-05-06T19:09:11.371Z,17.82
2023-05-06T19:11:37.905Z,17.82
2023-05-06T19:14:05.480Z,17.75
2023-05-06T19:16:33.034Z,17.64
2023-05-06T19:19:02.718Z,17.67
2023-05-06T19:21:29.240Z,17.78
2023-05-06T19:24:04.488Z,17.68
2023-05-06T19:26:31.017Z,17.57
2023-05-06T19:28:57.494Z,17.38
2023-05-06T19:31:25.765Z,17.47
2023-05-06T19:33:52.416Z,17.23
2023-05-06T19:36:18.838Z,17.05
2023-05-06T19:38:45.285Z,16.86
2023-05-06T19:41:11.834Z,16.82
2023-05-06T19:43:45.282Z,16.76
2023-05-06T19:46:12.186Z,16.66
2023-05-06T19:48:46.164Z,16.54
2023-05-06T19:51:16.469Z,16.57
2023-05-06T19:53:43.036Z,16.77
2023-05-06T19:56:11.060Z,16.92
2023-05-06T19:58:38.041Z,16.73
2023-05-06T20:01:04.595Z,16.82
2023-05-06T20:03:42.210Z,16.60
2023-05-06T20:06:08.836Z,16.58
2023-05-06T20:08:35.565Z,16.58
2023-05-06T20:11:02.197Z,16.30
2023-05-06T20:13:28.797Z,16.23
2023-05-06T20:15:55.723Z,16.15
2023-05-06T20:18:22.791Z,16.20
2023-05-06T20:20:50.628Z,16.29
2023-05-06T20:23:17.173Z,15.95
2023-05-06T20:25:43.959Z,15.92
2023-05-06T20:28:10.761Z,16.11
2023-05-06T20:30:38.357Z,16.01
2023-05-06T20:33:18.073Z,16.04
2023-05-06T20:35:44.647Z,16.24
2023-05-06T20:38:11.176Z,16.31
2023-05-06T20:40:37.761Z,16.29
2023-05-06T20:43:04.280Z,16.26
2023-05-06T20:45:31.466Z,16.27
2023-05-06T20:47:58.404Z,16.20
2023-05-06T20:50:24.927Z,15.91
2023-05-06T20:52:52.904Z,16.01
2023-05-06T20:55:23.064Z,15.95
2023-05-06T20:57:49.949Z,15.98
2023-05-06T21:00:16.599Z,15.77
2023-05-06T21:02:43.209Z,15.82
2023-05-06T21:05:13.297Z,15.87
2023-05-06T21:07:40.140Z,15.88
2023-05-06T21:10:06.983Z,15.78
2023-05-06T21:12:33.715Z,15.95
2023-05-06T21:15:00.536Z,15.85
2023-05-06T21:17:27.238Z,15.79
2023-05-06T21:19:53.923Z,15.88
2023-05-06T21:22:24.041Z,15.68
2023-05-06T21:24:51.066Z,15.71
2023-05-06T21:27:17.752Z,15.75
2023-05-06T21:29:45.458Z,15.91
2023-05-06T21:32:12.113Z,15.91
2023-05-06T21:34:38.713Z,15.86
2023-05-06T21:37:05.264Z,15.71
2023-05-06T21:39:31.755Z,15.64
2023-05-06T21:41:58.508Z,15.54
2023-05-06T21:44:25.010Z,15.47
2023-05-06T21:46:51.562Z,15.48
2023-05-06T21:49:19.425Z,15.59
2023-05-06T21:51:45.881Z,15.42
2023-05-06T21:54:12.377Z,15.45
2023-05-06T21:56:40.898Z,15.47
2023-05-06T21:59:07.937Z,15.46
2023-05-06T22:01:36.301Z,15.47
2023-05-06T22:04:04.825Z,15.43
2023-05-06T22:06:31.461Z,15.27
2023-05-06T22:08:57.913Z,15.31
2023-05-06T22:11:24.785Z,15.17
2023-05-06T22:13:51.334Z,15.22
2023-05-06T22:16:29.667Z,15.22
2023-05-06T22:18:59.724Z,15.14
2023-05-06T22:21:28.696Z,15.07
2023-05-06T22:23:55.138Z,15.05
2023-05-06T22:26:21.876Z,14.98
2023-05-06T22:28:48.378Z,15.01
2023-05-06T22:31:15.584Z,14.96
2023-05-06T22:33:42.291Z,14.86
2023-05-06T22:36:08.820Z,14.95
2023-05-06T22:38:35.285Z,14.93
2023-05-06T22:41:04.977Z,14.96
2023-05-06T22:43:31.431Z,14.88
2023-05-06T22:45:57.950Z,14.82
2023-05-06T22:48:24.755Z,14.80
2023-05-06T22:50:51.216Z,14.60
2023-05-06T22:53:17.668Z,14.74
2023-05-06T22:55:45.402Z,14.54
2023-05-06T22:58:15.086Z,14.56
2023-05-06T23:00:43.224Z,14.54
2023-05-06T23:03:11.765Z,14.52
2023-05-06T23:05:38.252Z,14.38
2023-05-06T23:08:04.926Z,14.33
2023-05-06T23:10:32.452Z,14.38
2023-05-06T23:13:03.002Z,14.34
2023-05-06T23:15:30.637Z,14.26
2023-05-06T23:17:57.129Z,14.31
2023-05-06T23:20:30.786Z,14.33
2023-05-06T23:22:57.279Z,14.21
2023-05-06T23:25:24.240Z,14.29
2023-05-06T23:27:50.749Z,14.24
2023-05-06T23:30:20.414Z,14.29
2023-05-06T23:32:46.962Z,14.20
2023-05-06T23:35:13.684Z,14.14
2023-05-06T23:37:40.275Z,14.08
2023-05-06T23:40:07.763Z,14.08
2023-05-06T23:42:34.218Z,13.98
2023-05-06T23:45:00.887Z,13.97
2023-05-06T23:47:27.464Z,13.90
2023-05-06T23:49:53.961Z,14.08
2023-05-06T23:52:21.299Z,14.02
2023-05-06T23:54:47.812Z,14.05
2023-05-06T23:57:14.298Z,14.04
2023-05-06T23:59:40.743Z,13.88
